Time;durP1;ratioP1;P1;durP2;ratioP2;P2;SDS_P1;SDS_P2;PMS_P1;PMS_P2;Temp;Humidity;BMP_temperature;BMP_pressure;BME280_temperature;BME280_humidity;BME280_pressure;Samples;Min_cycle;Max_cycle;Signal;HPM_P1;HPM_P2
2020/12/07 00:01:16;;;;;;;70.87;40.60;;;0.60;99.90;;;;;;4987539;28;20205;-76
2020/12/07 00:03:42;;;;;;;62.57;40.33;;;0.70;99.90;;;;;;4989414;28;20199;-77
2020/12/07 00:06:10;;;;;;;62.60;37.97;;;0.80;99.90;;;;;;4990741;28;20205;-76
2020/12/07 00:08:37;;;;;;;65.60;39.50;;;0.80;99.90;;;;;;4988230;28;20205;-76
2020/12/07 00:11:04;;;;;;;64.83;40.77;;;0.80;99.90;;;;;;4989094;28;20297;-75
2020/12/07 00:13:31;;;;;;;62.70;38.57;;;0.80;99.90;;;;;;4987543;28;20209;-77
2020/12/07 00:15:57;;;;;;;67.37;40.97;;;0.90;99.90;;;;;;4988705;28;20224;-76
2020/12/07 00:18:24;;;;;;;66.27;40.87;;;0.90;99.90;;;;;;4990513;28;20731;-76
2020/12/07 00:20:50;;;;;;;63.37;38.70;;;1.00;99.90;;;;;;4987325;28;20214;-76
2020/12/07 00:23:17;;;;;;;64.17;39.97;;;0.90;99.90;;;;;;4989275;28;20670;-79
2020/12/07 00:25:43;;;;;;;64.63;37.97;;;0.90;99.90;;;;;;4989196;28;20653;-78
2020/12/07 00:28:11;;;;;;;59.73;36.10;;;0.90;99.90;;;;;;4987572;28;20567;-77
2020/12/07 00:30:37;;;;;;;63.67;37.80;;;1.00;99.90;;;;;;4988663;28;20200;-76
2020/12/07 00:33:04;;;;;;;64.57;38.87;;;0.90;99.90;;;;;;4986670;28;20202;-76
2020/12/07 00:35:30;;;;;;;62.00;38.37;;;0.90;99.90;;;;;;4988707;28;20205;-74
2020/12/07 00:37:58;;;;;;;62.23;38.53;;;0.90;99.90;;;;;;4988553;28;20236;-76
2020/12/07 00:40:24;;;;;;;64.23;37.90;;;0.90;99.90;;;;;;4991192;28;20205;-74
2020/12/07 00:42:51;;;;;;;66.83;39.70;;;1.00;99.90;;;;;;4991986;28;20201;-76
2020/12/07 00:45:18;;;;;;;65.33;38.93;;;1.00;99.90;;;;;;4988098;28;20236;-77
2020/12/07 00:47:45;;;;;;;63.67;37.97;;;1.00;99.90;;;;;;4990386;28;20233;-76
2020/12/07 00:50:11;;;;;;;66.47;38.60;;;1.10;99.90;;;;;;4985274;28;20225;-76
2020/12/07 00:52:38;;;;;;;60.73;37.17;;;1.10;99.90;;;;;;4988195;28;20197;-77
2020/12/07 00:55:05;;;;;;;64.97;36.80;;;1.20;99.90;;;;;;4986448;28;20234;-76
2020/12/07 00:57:31;;;;;;;63.30;37.00;;;1.20;99.90;;;;;;4988167;28;20272;-76
2020/12/07 00:59:58;;;;;;;67.53;37.10;;;1.20;99.90;;;;;;4986182;28;20263;-76
2020/12/07 01:02:25;;;;;;;60.83;36.20;;;1.30;99.90;;;;;;4994414;28;20601;-77
2020/12/07 01:04:52;;;;;;;61.23;36.47;;;1.30;99.90;;;;;;4987498;28;20205;-78
2020/12/07 01:07:18;;;;;;;64.77;36.73;;;1.30;99.90;;;;;;4988646;28;20212;-74
2020/12/07 01:09:45;;;;;;;63.57;36.13;;;1.40;99.90;;;;;;4987689;28;20205;-75
2020/12/07 01:12:11;;;;;;;67.90;37.30;;;1.50;99.90;;;;;;4986084;28;20201;-76
2020/12/07 01:14:38;;;;;;;67.57;37.63;;;1.50;99.90;;;;;;4986454;28;20197;-76
2020/12/07 01:17:04;;;;;;;64.17;36.83;;;1.50;99.90;;;;;;4988230;28;22163;-76
2020/12/07 01:19:32;;;;;;;62.33;35.83;;;1.50;99.90;;;;;;4989422;28;20848;-77
2020/12/07 01:21:58;;;;;;;64.43;36.43;;;1.60;99.90;;;;;;4987123;28;20200;-75
2020/12/07 01:24:25;;;;;;;60.67;35.67;;;1.60;99.90;;;;;;4984792;28;22069;-76
2020/12/07 01:26:52;;;;;;;62.73;35.30;;;1.60;99.90;;;;;;4987229;28;20276;-76
2020/12/07 01:29:18;;;;;;;64.47;34.97;;;1.60;99.90;;;;;;4988298;28;20227;-77
2020/12/07 01:31:45;;;;;;;67.70;37.80;;;1.60;99.90;;;;;;4987510;28;20224;-77
2020/12/07 01:34:11;;;;;;;63.10;36.23;;;1.50;99.90;;;;;;4987203;28;20208;-77
2020/12/07 01:36:39;;;;;;;62.57;35.43;;;1.60;99.90;;;;;;4990715;28;20202;-76
2020/12/07 01:39:05;;;;;;;62.83;36.33;;;1.60;99.90;;;;;;4989077;28;20228;-75
2020/12/07 01:41:32;;;;;;;62.60;34.83;;;1.60;99.90;;;;;;4985985;28;20242;-77
2020/12/07 01:43:59;;;;;;;69.67;36.43;;;1.70;99.90;;;;;;4987799;28;21115;-77
2020/12/07 01:46:25;;;;;;;63.33;36.57;;;1.80;99.90;;;;;;4986285;28;20193;-77
2020/12/07 01:48:53;;;;;;;66.13;37.90;;;1.90;99.90;;;;;;4985964;28;20679;-76
2020/12/07 01:51:21;;;;;;;60.37;36.03;;;2.00;99.90;;;;;;4984972;28;20688;-76
2020/12/07 01:53:50;;;;;;;69.17;38.50;;;2.00;99.90;;;;;;4986758;28;20241;-77
2020/12/07 01:56:23;;;;;;;65.37;36.40;;;2.10;99.90;;;;;;4985416;28;20197;-76
2020/12/07 01:58:50;;;;;;;62.53;36.27;;;2.00;99.90;;;;;;4985909;28;20221;-76
2020/12/07 02:01:16;;;;;;;61.67;35.90;;;2.00;99.90;;;;;;4988391;28;20206;-75
2020/12/07 02:03:43;;;;;;;54.70;33.37;;;2.00;99.90;;;;;;4994338;28;20557;-78
2020/12/07 02:06:09;;;;;;;62.23;34.07;;;1.90;99.90;;;;;;4987370;28;20663;-77
2020/12/07 02:08:36;;;;;;;56.73;34.00;;;1.90;99.90;;;;;;4989011;28;20699;-76
2020/12/07 02:11:03;;;;;;;60.20;35.60;;;1.80;99.90;;;;;;4990676;28;22096;-76
2020/12/07 02:13:31;;;;;;;58.43;32.47;;;1.80;99.90;;;;;;4991945;28;20197;-78
2020/12/07 02:15:57;;;;;;;53.30;32.00;;;1.70;99.90;;;;;;4986988;28;20363;-77
2020/12/07 02:18:24;;;;;;;52.53;33.43;;;1.70;99.90;;;;;;4993242;28;22685;-78
2020/12/07 02:20:52;;;;;;;50.77;32.50;;;1.70;99.90;;;;;;4992080;28;20209;-76
2020/12/07 02:23:18;;;;;;;57.10;35.03;;;1.70;99.90;;;;;;4989012;28;20225;-79
2020/12/07 02:25:45;;;;;;;53.93;34.07;;;1.80;99.90;;;;;;4989754;28;20209;-78
2020/12/07 02:28:11;;;;;;;52.40;32.53;;;1.80;99.90;;;;;;4994786;28;20201;-76
2020/12/07 02:30:38;;;;;;;53.57;32.77;;;1.80;99.90;;;;;;4990291;28;20202;-77
2020/12/07 02:33:05;;;;;;;55.97;34.37;;;1.80;99.90;;;;;;4992413;28;20205;-75
2020/12/07 02:35:31;;;;;;;56.97;32.67;;;1.90;99.90;;;;;;4989980;28;20213;-76
2020/12/07 02:37:59;;;;;;;51.27;32.03;;;1.90;99.90;;;;;;4990136;28;20685;-76
2020/12/07 02:40:25;;;;;;;55.90;33.53;;;1.90;99.90;;;;;;4990452;28;20662;-76
2020/12/07 02:42:52;;;;;;;50.40;30.77;;;1.80;99.90;;;;;;4991873;28;20217;-79
2020/12/07 02:45:19;;;;;;;51.47;31.83;;;1.80;99.90;;;;;;4993970;28;20548;-79
2020/12/07 02:47:46;;;;;;;55.10;32.97;;;1.80;99.90;;;;;;4991170;28;20209;-78
2020/12/07 02:50:13;;;;;;;49.90;32.07;;;1.90;99.90;;;;;;4989229;28;20208;-79
2020/12/07 02:52:40;;;;;;;50.47;31.97;;;1.80;99.90;;;;;;4988213;28;20197;-77
2020/12/07 02:55:10;;;;;;;54.73;33.87;;;1.90;99.90;;;;;;4987979;28;22583;-78
2020/12/07 02:57:36;;;;;;;51.90;32.70;;;1.90;99.90;;;;;;4991599;28;20248;-77
2020/12/07 03:00:05;;;;;;;54.63;32.53;;;2.00;99.90;;;;;;4987205;28;20201;-79
2020/12/07 03:02:32;;;;;;;57.37;34.37;;;2.10;99.90;;;;;;4989050;28;20202;-80
2020/12/07 03:04:58;;;;;;;55.20;34.37;;;2.10;99.90;;;;;;4989436;28;20287;-79
2020/12/07 03:07:25;;;;;;;53.73;32.80;;;2.20;99.90;;;;;;4992644;28;20205;-76
2020/12/07 03:09:51;;;;;;;52.30;32.27;;;2.20;99.90;;;;;;4989584;28;20212;-77
2020/12/07 03:12:19;;;;;;;55.47;32.80;;;2.20;99.90;;;;;;4990526;28;20692;-79
2020/12/07 03:14:46;;;;;;;58.33;33.47;;;2.30;99.90;;;;;;4989937;28;20208;-77
2020/12/07 03:17:12;;;;;;;47.13;32.00;;;2.30;99.90;;;;;;4996808;28;20201;-76
2020/12/07 03:19:38;;;;;;;49.17;32.37;;;2.30;99.90;;;;;;4994911;28;20669;-78
2020/12/07 03:22:05;;;;;;;49.07;31.37;;;2.30;99.90;;;;;;4995838;28;20204;-78
2020/12/07 03:24:32;;;;;;;50.17;31.63;;;2.40;99.90;;;;;;4996200;28;20208;-78
2020/12/07 03:26:58;;;;;;;55.30;32.17;;;2.40;99.90;;;;;;5000777;28;20200;-79
2020/12/07 03:29:26;;;;;;;53.73;33.53;;;2.40;99.90;;;;;;4993033;28;20670;-78
2020/12/07 03:31:52;;;;;;;46.10;31.87;;;2.50;99.90;;;;;;4997637;28;20204;-77
2020/12/07 03:34:19;;;;;;;49.80;32.13;;;2.40;99.90;;;;;;4994590;28;20219;-76
2020/12/07 03:36:47;;;;;;;53.17;31.50;;;2.50;99.90;;;;;;4994364;28;20283;-75
2020/12/07 03:39:14;;;;;;;52.70;32.23;;;2.50;99.90;;;;;;4993962;28;22273;-75
2020/12/07 03:41:41;;;;;;;50.00;32.77;;;2.50;99.90;;;;;;4992965;28;20228;-76
2020/12/07 03:44:07;;;;;;;48.13;30.93;;;2.50;99.90;;;;;;4995783;28;20204;-76
2020/12/07 03:46:35;;;;;;;49.30;32.23;;;2.50;99.90;;;;;;4995236;28;20201;-75
2020/12/07 03:49:02;;;;;;;46.83;31.37;;;2.50;99.90;;;;;;4996357;28;20561;-76
2020/12/07 03:51:28;;;;;;;53.03;31.80;;;2.50;99.90;;;;;;4993740;28;20205;-77
2020/12/07 03:53:55;;;;;;;45.47;30.67;;;2.50;99.90;;;;;;4993151;28;20486;-75
2020/12/07 03:56:21;;;;;;;52.50;33.30;;;2.50;99.90;;;;;;4994816;28;20198;-76
2020/12/07 03:58:48;;;;;;;50.60;32.67;;;2.60;99.90;;;;;;4994931;28;20596;-75
2020/12/07 04:01:14;;;;;;;51.33;32.93;;;2.70;99.90;;;;;;4995821;28;20208;-75
2020/12/07 04:03:44;;;;;;;52.77;34.23;;;2.70;99.90;;;;;;4993235;28;20213;-76
2020/12/07 04:06:14;;;;;;;51.60;33.57;;;2.70;99.90;;;;;;4994818;28;20282;-74
2020/12/07 04:08:41;;;;;;;54.07;34.97;;;2.80;99.90;;;;;;4992798;28;20208;-75
2020/12/07 04:11:07;;;;;;;51.80;34.03;;;2.80;99.90;;;;;;4993513;28;20204;-78
2020/12/07 04:13:34;;;;;;;55.53;35.30;;;2.80;99.90;;;;;;4995494;28;20574;-77
2020/12/07 04:16:03;;;;;;;54.90;35.30;;;2.80;99.90;;;;;;4992246;28;20647;-75
2020/12/07 04:18:29;;;;;;;60.53;35.97;;;2.80;99.90;;;;;;4995647;28;20227;-78
2020/12/07 04:21:00;;;;;;;55.40;36.37;;;2.90;99.90;;;;;;4994209;28;20196;-77
2020/12/07 04:23:26;;;;;;;59.87;37.37;;;2.90;99.90;;;;;;4990298;28;20296;-75
2020/12/07 04:25:53;;;;;;;57.20;36.20;;;2.90;99.90;;;;;;4990605;28;20209;-77
2020/12/07 04:28:20;;;;;;;61.07;37.50;;;2.90;99.90;;;;;;4993729;28;20556;-76
2020/12/07 04:30:46;;;;;;;58.53;38.10;;;2.90;99.90;;;;;;4993965;28;20209;-76
2020/12/07 04:33:13;;;;;;;60.87;38.73;;;2.90;99.90;;;;;;4994916;28;20205;-76
2020/12/07 04:35:39;;;;;;;62.40;38.60;;;2.90;99.90;;;;;;4991560;28;20205;-76
2020/12/07 04:38:08;;;;;;;61.67;39.53;;;2.90;99.90;;;;;;4995322;28;20662;-78
2020/12/07 04:40:34;;;;;;;62.83;38.67;;;3.00;99.90;;;;;;4993680;28;20201;-75
2020/12/07 04:43:02;;;;;;;65.23;39.30;;;3.00;99.90;;;;;;4993034;28;20209;-76
2020/12/07 04:45:29;;;;;;;69.00;40.70;;;3.10;99.90;;;;;;4991607;28;20289;-75
2020/12/07 04:47:59;;;;;;;64.53;41.13;;;3.10;99.90;;;;;;4992997;28;20205;-78
2020/12/07 04:50:29;;;;;;;62.63;40.23;;;3.20;99.90;;;;;;4993531;28;20209;-76
2020/12/07 04:52:57;;;;;;;71.23;42.00;;;3.20;99.90;;;;;;4990885;28;22719;-74
2020/12/07 04:55:25;;;;;;;63.70;40.43;;;3.20;99.90;;;;;;4992820;28;20320;-75
2020/12/07 04:57:52;;;;;;;67.00;40.90;;;3.20;99.90;;;;;;4994584;28;20224;-74
2020/12/07 05:00:22;;;;;;;68.13;41.77;;;3.20;99.90;;;;;;4994157;28;20201;-76
2020/12/07 05:02:52;;;;;;;65.40;40.87;;;3.20;99.90;;;;;;4997488;28;20197;-74
2020/12/07 05:05:19;;;;;;;71.13;41.30;;;3.20;99.90;;;;;;4995227;28;20212;-76
2020/12/07 05:07:49;;;;;;;79.33;44.77;;;3.20;99.90;;;;;;4990300;28;20415;-75
2020/12/07 05:10:20;;;;;;;68.43;42.60;;;3.20;99.90;;;;;;4985850;28;20583;-77
2020/12/07 05:12:50;;;;;;;68.50;42.60;;;3.20;99.90;;;;;;4988497;28;20665;-76
2020/12/07 05:15:19;;;;;;;70.47;43.47;;;3.20;99.90;;;;;;4986138;28;20873;-76
2020/12/07 05:17:47;;;;;;;73.43;44.10;;;3.20;99.90;;;;;;4986638;28;20232;-75
2020/12/07 05:20:15;;;;;;;71.33;41.57;;;3.20;99.90;;;;;;4987875;28;20209;-78
2020/12/07 05:22:41;;;;;;;71.27;43.40;;;3.20;99.90;;;;;;4985843;28;20201;-75
2020/12/07 05:25:09;;;;;;;73.57;45.93;;;3.20;99.90;;;;;;4989401;28;20205;-76
2020/12/07 05:27:39;;;;;;;71.23;44.23;;;3.20;99.90;;;;;;4987767;28;20242;-79
2020/12/07 05:30:11;;;;;;;77.27;45.33;;;3.20;99.90;;;;;;4989617;28;20201;-76
2020/12/07 05:32:39;;;;;;;78.10;45.97;;;3.20;99.90;;;;;;4985948;28;20201;-79
2020/12/07 05:35:07;;;;;;;76.10;48.43;;;3.20;99.90;;;;;;4988463;28;20673;-79
2020/12/07 05:37:34;;;;;;;88.03;49.83;;;3.20;99.90;;;;;;4989353;28;20205;-77
2020/12/07 05:40:02;;;;;;;79.60;50.20;;;3.20;99.90;;;;;;4992844;28;20205;-78
2020/12/07 05:42:30;;;;;;;81.57;51.03;;;3.20;99.90;;;;;;4988603;28;20209;-76
2020/12/07 05:44:58;;;;;;;81.30;50.00;;;3.10;99.90;;;;;;4995033;28;20217;-80
2020/12/07 05:47:26;;;;;;;76.97;48.60;;;3.10;99.90;;;;;;4989925;28;20193;-76
2020/12/07 05:49:54;;;;;;;76.53;46.70;;;3.10;99.90;;;;;;4991386;28;20565;-79
2020/12/07 05:52:29;;;;;;;86.27;49.00;;;3.10;99.90;;;;;;4990294;28;20209;-77
2020/12/07 05:54:56;;;;;;;84.80;48.67;;;3.00;99.90;;;;;;4991201;28;20228;-78
2020/12/07 05:57:30;;;;;;;90.17;50.27;;;3.10;99.90;;;;;;4989458;28;20228;-77
2020/12/07 06:00:01;;;;;;;85.60;50.70;;;3.00;99.90;;;;;;4994211;28;22342;-80
2020/12/07 06:02:29;;;;;;;89.10;52.43;;;3.00;99.90;;;;;;4990880;28;20279;-78
2020/12/07 06:04:58;;;;;;;89.07;52.93;;;3.00;99.90;;;;;;4991584;28;20216;-80
2020/12/07 06:07:29;;;;;;;96.07;55.67;;;3.00;99.90;;;;;;4991209;28;20216;-78
2020/12/07 06:09:57;;;;;;;88.03;53.10;;;3.10;99.90;;;;;;4994019;28;20209;-76
2020/12/07 06:12:30;;;;;;;87.53;52.30;;;3.10;99.90;;;;;;5002780;28;20208;-74
2020/12/07 06:14:58;;;;;;;82.17;49.53;;;3.20;99.90;;;;;;5005299;28;20720;-73
2020/12/07 06:17:25;;;;;;;84.77;50.30;;;3.20;99.90;;;;;;5005741;28;20201;-72
2020/12/07 06:19:53;;;;;;;90.53;51.40;;;3.20;99.90;;;;;;4999530;28;20205;-75
2020/12/07 06:22:23;;;;;;;87.47;54.47;;;3.20;99.90;;;;;;4995191;28;20198;-72
2020/12/07 06:24:52;;;;;;;93.70;53.30;;;3.30;99.90;;;;;;4999095;28;20198;-74
2020/12/07 06:27:19;;;;;;;92.03;54.60;;;3.30;99.90;;;;;;4999901;28;20205;-73
2020/12/07 06:30:03;;;;;;;97.53;55.57;;;3.40;99.90;;;;;;4997512;28;20208;-74
2020/12/07 06:32:46;;;;;;;95.93;53.20;;;3.40;99.90;;;;;;4997793;28;20568;-73
2020/12/07 06:35:14;;;;;;;95.87;55.50;;;3.50;99.90;;;;;;4999266;28;20297;-74
2020/12/07 06:37:45;;;;;;;97.87;55.47;;;3.40;99.90;;;;;;4992140;28;20201;-74
2020/12/07 06:40:13;;;;;;;91.63;56.10;;;3.50;99.90;;;;;;4991994;28;20201;-75
2020/12/07 06:42:41;;;;;;;95.40;55.50;;;3.50;99.90;;;;;;4989580;28;20569;-75
2020/12/07 06:45:10;;;;;;;90.10;56.23;;;3.60;99.90;;;;;;4991957;28;20213;-74
2020/12/07 06:47:40;;;;;;;103.30;56.50;;;3.60;99.90;;;;;;4988983;28;20212;-77
2020/12/07 06:50:13;;;;;;;97.83;58.20;;;3.60;99.90;;;;;;4989283;28;20208;-74
2020/12/07 06:52:43;;;;;;;106.07;59.47;;;3.60;99.90;;;;;;4995572;28;20192;-73
2020/12/07 06:55:11;;;;;;;99.73;57.60;;;3.60;99.90;;;;;;4993849;28;20237;-74
2020/12/07 06:57:43;;;;;;;96.90;57.57;;;3.60;99.90;;;;;;4996643;28;22448;-74
2020/12/07 07:00:13;;;;;;;104.83;58.43;;;3.60;99.90;;;;;;4996354;28;20301;-76
2020/12/07 07:02:41;;;;;;;104.67;58.10;;;3.60;99.90;;;;;;4997762;28;20658;-78
2020/12/07 07:05:08;;;;;;;97.57;57.10;;;3.60;99.90;;;;;;4994507;28;20219;-77
2020/12/07 07:07:36;;;;;;;97.00;56.53;;;3.60;99.90;;;;;;4997999;28;20193;-76
2020/12/07 07:10:04;;;;;;;99.03;55.70;;;3.60;99.90;;;;;;4997246;28;20745;-74
2020/12/07 07:12:31;;;;;;;99.30;57.23;;;3.70;99.90;;;;;;4994740;28;20201;-75
2020/12/07 07:14:58;;;;;;;97.50;57.47;;;3.70;99.90;;;;;;4994316;28;20205;-75
2020/12/07 07:17:27;;;;;;;97.13;57.70;;;3.70;99.90;;;;;;4995898;28;20255;-74
2020/12/07 07:19:54;;;;;;;104.17;58.97;;;3.70;99.90;;;;;;4997130;28;20236;-75
2020/12/07 07:22:21;;;;;;;89.30;55.60;;;3.70;99.90;;;;;;4995289;28;20685;-77
2020/12/07 07:24:54;;;;;;;96.00;57.63;;;3.80;99.90;;;;;;4995713;28;20287;-76
2020/12/07 07:30:06;;;;;;;100.57;59.30;;;3.70;99.90;;;;;;4992122;28;20216;-76
2020/12/07 07:32:33;;;;;;;96.07;57.40;;;3.70;99.90;;;;;;4992728;28;20581;-72
2020/12/07 07:35:00;;;;;;;98.67;58.80;;;3.60;99.90;;;;;;4989176;28;20204;-76
2020/12/07 07:37:26;;;;;;;93.50;55.87;;;3.60;99.90;;;;;;4993564;28;20200;-73
2020/12/07 07:40:00;;;;;;;103.57;58.73;;;3.60;99.90;;;;;;4993780;28;20697;-74
2020/12/07 07:42:29;;;;;;;97.50;55.60;;;3.60;99.90;;;;;;4999490;28;20288;-76
2020/12/07 07:44:56;;;;;;;108.63;58.67;;;3.60;99.90;;;;;;4999321;28;20197;-74
2020/12/07 07:47:28;;;;;;;97.53;54.97;;;3.60;99.90;;;;;;4999466;28;20209;-73
2020/12/07 08:15:42;;;;;;;77.40;47.23;;;4.10;99.90;;;;;;4999116;28;20193;-72
2020/12/07 08:18:09;;;;;;;68.97;43.93;;;4.30;99.90;;;;;;4998567;28;20256;-73
2020/12/07 08:20:37;;;;;;;74.90;44.67;;;4.30;99.90;;;;;;4999007;28;20197;-73
2020/12/07 08:23:06;;;;;;;71.77;45.07;;;4.40;99.90;;;;;;4998260;28;20213;-73
2020/12/07 08:25:50;;;;;;;75.37;45.03;;;4.40;99.90;;;;;;5003186;28;20612;-73
2020/12/07 08:28:18;;;;;;;77.43;45.67;;;4.50;99.90;;;;;;4998872;28;21017;-73
2020/12/07 08:31:13;;;;;;;72.97;44.80;;;4.50;99.90;;;;;;5000423;28;20662;-73
2020/12/07 08:33:41;;;;;;;73.20;44.60;;;4.60;99.90;;;;;;4998653;28;20201;-73
2020/12/07 08:36:09;;;;;;;93.37;54.63;;;4.60;99.90;;;;;;4998935;28;20665;-74
2020/12/07 08:38:38;;;;;;;96.77;56.03;;;4.60;99.90;;;;;;5000115;28;20910;-73
2020/12/07 08:41:07;;;;;;;102.10;57.43;;;4.50;99.90;;;;;;4998336;28;20208;-73
2020/12/07 08:43:34;;;;;;;101.90;59.33;;;4.40;99.90;;;;;;5001007;28;20205;-73
2020/12/07 08:46:01;;;;;;;95.40;58.23;;;4.30;99.90;;;;;;4996883;28;20968;-74
2020/12/07 08:48:28;;;;;;;94.00;55.60;;;4.20;99.90;;;;;;4998424;28;20208;-72
2020/12/07 08:50:55;;;;;;;97.57;56.17;;;4.10;99.90;;;;;;4999707;28;20206;-71
2020/12/07 08:53:22;;;;;;;96.23;57.67;;;4.10;99.90;;;;;;4998706;28;20196;-72
2020/12/07 08:55:48;;;;;;;90.00;53.90;;;4.00;99.90;;;;;;4999557;28;20229;-73
2020/12/07 08:58:15;;;;;;;91.13;56.27;;;4.00;99.90;;;;;;4998495;28;20241;-73
2020/12/07 09:00:42;;;;;;;97.00;58.53;;;3.90;99.90;;;;;;4999372;28;20193;-72
2020/12/07 09:03:09;;;;;;;103.23;64.63;;;3.90;99.90;;;;;;5001806;28;20197;-73
2020/12/07 09:05:37;;;;;;;101.33;63.40;;;3.90;99.90;;;;;;4998988;28;20211;-73
2020/12/07 09:08:05;;;;;;;94.83;60.10;;;4.00;99.90;;;;;;4999424;28;20743;-73
2020/12/07 09:10:31;;;;;;;101.67;59.00;;;4.00;99.90;;;;;;5000607;28;20299;-74
2020/12/07 09:12:58;;;;;;;102.40;63.13;;;4.10;99.90;;;;;;4997990;28;20197;-72
2020/12/07 09:15:25;;;;;;;131.20;78.53;;;4.00;99.90;;;;;;4998948;28;20212;-75
2020/12/07 09:17:51;;;;;;;102.50;60.57;;;4.00;99.90;;;;;;5000618;28;20202;-73
2020/12/07 09:20:19;;;;;;;98.00;62.77;;;4.00;99.90;;;;;;4998351;28;20197;-73
2020/12/07 09:22:45;;;;;;;98.80;61.87;;;4.00;99.90;;;;;;4999910;28;20716;-72
2020/12/07 09:25:12;;;;;;;97.10;59.57;;;4.00;99.90;;;;;;5001751;28;20684;-72
2020/12/07 09:27:38;;;;;;;103.23;60.80;;;4.00;99.90;;;;;;4998990;28;20193;-73
2020/12/07 09:30:06;;;;;;;94.80;60.47;;;3.90;99.90;;;;;;4998623;28;20204;-72
2020/12/07 09:32:32;;;;;;;98.00;59.70;;;3.90;99.90;;;;;;4998594;28;20209;-76
2020/12/07 09:34:59;;;;;;;98.20;62.63;;;3.90;99.90;;;;;;4998974;28;20290;-75
2020/12/07 09:37:27;;;;;;;112.73;75.80;;;3.80;99.90;;;;;;4999904;28;20209;-75
2020/12/07 09:39:53;;;;;;;101.00;65.47;;;3.80;99.90;;;;;;4997992;28;20232;-73
2020/12/07 09:42:20;;;;;;;97.93;59.53;;;3.80;99.90;;;;;;4997518;28;20216;-76
2020/12/07 09:44:47;;;;;;;106.57;62.50;;;3.80;99.90;;;;;;4994057;28;20209;-71
2020/12/07 09:47:14;;;;;;;98.87;63.27;;;3.80;99.90;;;;;;4994360;28;22485;-74
2020/12/07 09:49:40;;;;;;;105.90;63.30;;;3.70;99.90;;;;;;5001630;28;20204;-72
2020/12/07 09:52:08;;;;;;;112.77;69.97;;;3.70;99.90;;;;;;4998032;28;20201;-73
2020/12/07 09:54:38;;;;;;;118.23;68.10;;;3.70;99.90;;;;;;4994297;28;20233;-73
2020/12/07 09:57:05;;;;;;;106.60;61.33;;;3.80;99.90;;;;;;4989887;28;20205;-78
2020/12/07 09:59:33;;;;;;;113.60;63.10;;;3.80;99.90;;;;;;4988253;28;20702;-74
2020/12/07 10:02:00;;;;;;;106.87;64.40;;;3.80;99.90;;;;;;4989452;28;20263;-75
2020/12/07 10:04:26;;;;;;;109.47;64.33;;;3.90;99.90;;;;;;4994488;28;20670;-77
2020/12/07 10:06:53;;;;;;;113.33;63.63;;;3.90;99.90;;;;;;4993026;28;20212;-76
2020/12/07 10:09:20;;;;;;;114.87;65.30;;;3.90;99.90;;;;;;4993583;28;20201;-73
2020/12/07 10:11:48;;;;;;;107.67;62.00;;;3.90;99.90;;;;;;4993533;28;20223;-77
2020/12/07 10:14:15;;;;;;;102.60;60.27;;;3.90;99.90;;;;;;4993888;28;20205;-77
2020/12/07 10:16:43;;;;;;;108.97;60.77;;;4.00;99.90;;;;;;4994887;28;20255;-75
2020/12/07 10:19:10;;;;;;;105.57;61.67;;;4.00;99.90;;;;;;4992211;28;20232;-76
2020/12/07 10:21:37;;;;;;;108.93;62.40;;;4.10;99.90;;;;;;4991097;28;20201;-75
2020/12/07 10:24:04;;;;;;;103.67;59.70;;;4.10;99.90;;;;;;4997955;28;20204;-79
2020/12/07 10:26:31;;;;;;;100.43;60.13;;;4.10;99.90;;;;;;4994829;28;20219;-72
2020/12/07 10:28:58;;;;;;;102.97;60.53;;;4.10;99.90;;;;;;4999665;28;20216;-71
2020/12/07 10:31:25;;;;;;;106.43;62.97;;;4.00;99.90;;;;;;5001503;28;20669;-73
2020/12/07 10:33:52;;;;;;;108.43;61.43;;;4.00;99.90;;;;;;4994637;28;20665;-71
2020/12/07 10:36:20;;;;;;;110.20;63.97;;;4.00;99.90;;;;;;5000713;28;20209;-74
2020/12/07 10:38:48;;;;;;;103.80;62.23;;;4.00;99.90;;;;;;4998326;28;20319;-73
2020/12/07 10:41:15;;;;;;;102.90;62.07;;;4.10;99.90;;;;;;4997064;28;20205;-74
2020/12/07 10:43:42;;;;;;;115.57;67.47;;;4.20;99.90;;;;;;5001255;28;20208;-74
2020/12/07 10:46:12;;;;;;;105.67;64.20;;;4.30;99.90;;;;;;5001065;28;20228;-74
2020/12/07 10:48:38;;;;;;;101.97;60.27;;;4.40;99.90;;;;;;4998663;28;20205;-68
2020/12/07 10:51:05;;;;;;;101.73;61.30;;;4.30;99.90;;;;;;5002245;28;20220;-72
2020/12/07 10:53:32;;;;;;;114.13;65.60;;;4.30;99.90;;;;;;5000731;28;20209;-72
2020/12/07 10:55:59;;;;;;;98.67;62.10;;;4.30;99.90;;;;;;4999506;28;20225;-71
2020/12/07 10:58:25;;;;;;;102.73;60.80;;;4.30;99.90;;;;;;5002411;28;20702;-71
2020/12/07 11:00:52;;;;;;;98.90;58.07;;;4.30;99.90;;;;;;4999926;28;20539;-75
2020/12/07 11:03:20;;;;;;;97.73;57.37;;;4.40;99.90;;;;;;4995685;28;20219;-70
2020/12/07 11:05:46;;;;;;;96.23;58.17;;;4.50;99.90;;;;;;4994834;28;20212;-74
2020/12/07 11:08:19;;;;;;;103.57;58.83;;;4.40;99.90;;;;;;4994493;28;20209;-71
2020/12/07 11:10:45;;;;;;;102.07;58.47;;;4.30;99.90;;;;;;4996608;28;20201;-72
2020/12/07 11:13:24;;;;;;;104.33;58.47;;;4.20;99.90;;;;;;4992592;28;20205;-76
2020/12/07 11:15:51;;;;;;;100.13;58.13;;;4.20;99.90;;;;;;4996250;28;20215;-75
2020/12/07 11:18:17;;;;;;;100.40;57.33;;;4.20;99.90;;;;;;4995342;28;20205;-77
2020/12/07 11:20:45;;;;;;;95.00;57.03;;;4.30;99.90;;;;;;4996226;28;20205;-76
2020/12/07 11:23:11;;;;;;;96.17;55.30;;;4.30;99.90;;;;;;4995728;28;20201;-77
2020/12/07 11:25:38;;;;;;;94.20;55.93;;;4.40;99.90;;;;;;4998940;28;20201;-82
2020/12/07 11:28:04;;;;;;;95.13;57.40;;;4.40;99.90;;;;;;4996210;28;20874;-74
2020/12/07 11:30:31;;;;;;;97.70;59.43;;;4.50;99.90;;;;;;4994622;28;20201;-73
2020/12/07 11:32:58;;;;;;;102.53;62.03;;;4.60;99.90;;;;;;4995353;28;20201;-72
2020/12/07 11:35:24;;;;;;;97.93;62.63;;;4.80;99.90;;;;;;4995013;28;20219;-72
2020/12/07 11:37:56;;;;;;;93.77;57.57;;;5.00;99.90;;;;;;4998407;28;20300;-75
2020/12/07 11:40:34;;;;;;;97.93;59.50;;;5.20;99.90;;;;;;4993690;28;20217;-74
2020/12/07 11:43:13;;;;;;;87.50;53.43;;;5.50;99.90;;;;;;4993560;28;20220;-68
2020/12/07 11:45:41;;;;;;;82.07;54.27;;;5.70;99.90;;;;;;4992560;28;20661;-76
2020/12/07 11:48:08;;;;;;;71.00;49.00;;;5.60;99.90;;;;;;4994575;28;20197;-71
2020/12/07 11:50:34;;;;;;;69.40;48.93;;;5.60;99.90;;;;;;5000317;28;20216;-71
2020/12/07 11:53:02;;;;;;;62.73;45.33;;;5.50;99.90;;;;;;4998958;28;20229;-67
2020/12/07 11:55:29;;;;;;;59.67;43.33;;;5.40;99.90;;;;;;4998259;28;20247;-75
2020/12/07 11:57:56;;;;;;;63.77;43.63;;;5.50;99.90;;;;;;4995116;28;20527;-74
2020/12/07 12:00:22;;;;;;;54.97;40.77;;;5.60;99.90;;;;;;4993117;28;20232;-73
2020/12/07 12:02:49;;;;;;;54.27;39.50;;;5.70;99.90;;;;;;4993812;28;20216;-72
2020/12/07 12:05:16;;;;;;;52.93;38.90;;;5.70;99.90;;;;;;4996669;28;20228;-71
2020/12/07 12:07:42;;;;;;;54.27;38.47;;;5.60;99.90;;;;;;4995232;28;20207;-71
2020/12/07 12:10:10;;;;;;;54.83;39.23;;;5.50;99.90;;;;;;4994387;28;20213;-75
2020/12/07 12:12:36;;;;;;;54.60;38.80;;;5.50;99.90;;;;;;4994679;28;20201;-69
2020/12/07 12:15:03;;;;;;;51.40;36.47;;;5.60;99.90;;;;;;4997839;28;20209;-78
2020/12/07 12:17:30;;;;;;;57.17;38.50;;;6.00;99.90;;;;;;4998537;28;20561;-75
2020/12/07 12:19:57;;;;;;;51.80;36.47;;;6.30;99.90;;;;;;4996841;28;20232;-70
2020/12/07 12:22:23;;;;;;;49.13;34.37;;;6.50;99.90;;;;;;4993740;28;20201;-77
2020/12/07 12:24:50;;;;;;;46.60;33.23;;;6.40;99.90;;;;;;4991331;28;20193;-76
2020/12/07 12:27:18;;;;;;;49.00;35.37;;;6.30;99.90;;;;;;4995053;28;20214;-74
2020/12/07 12:29:44;;;;;;;46.10;34.93;;;6.20;99.90;;;;;;4994079;28;20259;-77
2020/12/07 12:32:11;;;;;;;47.80;33.83;;;6.10;99.90;;;;;;4996601;28;20212;-77
2020/12/07 12:34:38;;;;;;;47.20;33.30;;;5.80;99.90;;;;;;4999309;28;20201;-71
2020/12/07 12:37:04;;;;;;;52.33;35.57;;;5.70;99.90;;;;;;4999366;28;20205;-76
2020/12/07 12:39:31;;;;;;;47.80;33.80;;;5.50;99.90;;;;;;4997902;28;20220;-78
2020/12/07 12:41:57;;;;;;;49.50;34.97;;;5.40;99.90;;;;;;4998684;28;20205;-77
2020/12/07 12:44:25;;;;;;;53.80;35.43;;;5.30;99.90;;;;;;4996917;28;20296;-78
2020/12/07 12:46:51;;;;;;;53.83;36.20;;;5.30;99.90;;;;;;4998707;28;20196;-70
2020/12/07 12:49:19;;;;;;;52.30;36.60;;;5.30;99.90;;;;;;4998198;28;20267;-78
2020/12/07 12:51:46;;;;;;;56.20;39.40;;;5.60;99.90;;;;;;4998682;28;20205;-77
2020/12/07 12:54:13;;;;;;;59.53;38.57;;;6.00;99.90;;;;;;4992849;28;20591;-75
2020/12/07 12:56:39;;;;;;;60.03;39.50;;;6.30;99.90;;;;;;4992961;28;20201;-72
2020/12/07 12:59:06;;;;;;;55.50;37.13;;;6.70;99.90;;;;;;4998682;28;20220;-71
2020/12/07 13:01:36;;;;;;;54.13;36.47;;;6.90;99.90;;;;;;4998644;28;20289;-71
2020/12/07 13:04:03;;;;;;;45.77;33.20;;;7.00;99.90;;;;;;5000244;28;20193;-85
2020/12/07 13:06:34;;;;;;;48.63;34.13;;;6.90;99.90;;;;;;4995010;28;20201;-80